createdAt,value
2023-02-17T00:01:11.799Z,101179.94
2023-02-17T00:03:38.182Z,101179.63
2023-02-17T00:06:09.537Z,101178.50
2023-02-17T00:08:36.038Z,101175.72
2023-02-17T00:11:02.620Z,101176.28
2023-02-17T00:13:29.020Z,101165.28
2023-02-17T00:15:55.469Z,101163.59
2023-02-17T00:18:22.286Z,101161.88
2023-02-17T00:20:48.700Z,101154.84
2023-02-17T00:23:15.089Z,101161.06
2023-02-17T00:25:41.416Z,101165.00
2023-02-17T00:28:07.833Z,101162.50
2023-02-17T00:30:34.367Z,101147.81
2023-02-17T00:33:01.052Z,101145.66
2023-02-17T00:35:27.492Z,101139.72
2023-02-17T00:37:53.804Z,101142.81
2023-02-17T00:40:20.193Z,101149.84
2023-02-17T00:42:46.559Z,101146.50
2023-02-17T00:45:12.959Z,101147.84
2023-02-17T00:47:39.268Z,101150.91
2023-02-17T00:50:06.796Z,101155.88
2023-02-17T00:52:33.133Z,101171.66
2023-02-17T00:54:59.528Z,101160.06
2023-02-17T00:57:26.302Z,101152.94
2023-02-17T00:59:52.733Z,101155.44
2023-02-17T01:02:19.111Z,101148.09
2023-02-17T01:04:45.528Z,101162.13
2023-02-17T01:07:11.919Z,101159.56
2023-02-17T01:09:38.272Z,101171.03
2023-02-17T01:12:04.700Z,101165.03
2023-02-17T01:14:31.050Z,101165.22
2023-02-17T01:16:57.459Z,101168.34
2023-02-17T01:19:23.822Z,101175.16
2023-02-17T01:21:50.395Z,101169.84
2023-02-17T01:24:16.814Z,101161.97
2023-02-17T01:26:43.242Z,101148.41
2023-02-17T01:29:10.029Z,101155.72
2023-02-17T01:31:36.693Z,101146.13
2023-02-17T01:34:04.432Z,101155.31
2023-02-17T01:36:31.240Z,101150.81
2023-02-17T01:38:57.660Z,101148.66
2023-02-17T01:41:28.634Z,101140.66
2023-02-17T01:44:18.219Z,101142.94
2023-02-17T01:46:46.685Z,101135.31
2023-02-17T01:49:25.496Z,101130.00
2023-02-17T01:52:20.803Z,101127.22
2023-02-17T01:54:57.733Z,101112.22
2023-02-17T01:57:26.714Z,101111.91
2023-02-17T01:59:53.749Z,101122.59
2023-02-17T02:02:20.546Z,101108.22
2023-02-17T02:04:49.618Z,101100.59
2023-02-17T02:07:22.225Z,101101.09
2023-02-17T02:09:54.422Z,101094.97
2023-02-17T02:12:33.497Z,101081.69
2023-02-17T02:15:02.868Z,101085.06
2023-02-17T02:17:40.835Z,101089.56
2023-02-17T02:20:46.358Z,101086.81
2023-02-17T02:23:31.203Z,101079.72
2023-02-17T02:26:03.690Z,101076.91
2023-02-17T02:28:58.108Z,101069.81
2023-02-17T02:32:02.146Z,101069.50
2023-02-17T02:34:38.919Z,101064.13
2023-02-17T02:37:10.562Z,101055.66
2023-02-17T02:39:42.924Z,101052.00
2023-02-17T02:42:13.265Z,101057.94
2023-02-17T02:44:39.654Z,101052.53
2023-02-17T02:47:44.429Z,101046.25
2023-02-17T02:50:14.604Z,101037.44
2023-02-17T02:53:13.064Z,101037.88
2023-02-17T02:56:07.815Z,101035.84
2023-02-17T02:58:52.044Z,101030.13
2023-02-17T03:01:52.423Z,101039.69
2023-02-17T03:04:40.281Z,101045.81
2023-02-17T03:07:22.096Z,101041.44
2023-02-17T03:09:50.737Z,101031.97
2023-02-17T03:12:17.506Z,101028.00
2023-02-17T03:14:43.984Z,101038.69
2023-02-17T03:17:10.558Z,101034.56
2023-02-17T03:19:37.180Z,101031.63
2023-02-17T03:22:24.650Z,101041.44
2023-02-17T03:24:51.536Z,101031.88
2023-02-17T03:27:18.017Z,101036.38
2023-02-17T03:29:44.433Z,101029.22
2023-02-17T03:32:10.865Z,101038.00
2023-02-17T03:34:37.317Z,101030.31
2023-02-17T03:37:03.746Z,101032.44
2023-02-17T03:39:30.270Z,101033.44
2023-02-17T03:41:56.631Z,101025.28
2023-02-17T03:44:23.014Z,101024.88
2023-02-17T03:46:49.382Z,101024.34
2023-02-17T03:49:15.786Z,101025.91
2023-02-17T03:51:42.112Z,101025.06
2023-02-17T03:54:09.365Z,101021.53
2023-02-17T03:56:35.765Z,101012.44
2023-02-17T03:59:02.393Z,101020.69
2023-02-17T04:01:28.801Z,101020.63
2023-02-17T04:03:55.407Z,101018.41
2023-02-17T04:06:21.801Z,101022.38
2023-02-17T04:08:48.198Z,101024.38
2023-02-17T04:11:14.553Z,101022.25
2023-02-17T04:13:40.990Z,101016.81
2023-02-17T04:16:09.403Z,101019.03
2023-02-17T04:18:36.450Z,101020.50
2023-02-17T04:21:03.292Z,101018.00
2023-02-17T04:23:29.680Z,101013.28
2023-02-17T04:25:56.109Z,101013.38
2023-02-17T04:28:22.910Z,101012.75
2023-02-17T04:30:50.821Z,101010.34
2023-02-17T04:33:17.106Z,101014.53
2023-02-17T04:35:43.480Z,101015.91
2023-02-17T04:38:10.586Z,101027.53
2023-02-17T04:40:37.758Z,101026.69
2023-02-17T04:43:04.290Z,101028.16
2023-02-17T04:45:30.666Z,101031.50
2023-02-17T04:47:57.057Z,101025.63
2023-02-17T04:50:23.416Z,101023.78
2023-02-17T04:52:49.796Z,101024.91
2023-02-17T04:55:16.200Z,101022.81
2023-02-17T04:57:42.591Z,101018.00
2023-02-17T05:00:09.386Z,101017.81
2023-02-17T05:02:35.757Z,101015.06
2023-02-17T05:05:02.137Z,101023.34
2023-02-17T05:07:28.577Z,101020.63
2023-02-17T05:09:54.968Z,101015.59
2023-02-17T05:12:21.322Z,101023.47
2023-02-17T05:14:47.713Z,101020.09
2023-02-17T05:17:14.175Z,101016.97
2023-02-17T05:19:40.522Z,101012.84
2023-02-17T05:22:06.904Z,101019.44
2023-02-17T05:24:33.328Z,101020.09
2023-02-17T05:26:59.673Z,101019.13
2023-02-17T05:29:26.034Z,101020.41
2023-02-17T05:31:52.457Z,101024.09
2023-02-17T05:34:18.826Z,101023.97
2023-02-17T05:36:45.163Z,101018.63
2023-02-17T05:39:11.741Z,101019.66
2023-02-17T05:41:38.168Z,101025.22
2023-02-17T05:44:04.731Z,101027.00
2023-02-17T05:46:31.118Z,101023.88
2023-02-17T05:48:57.502Z,101033.94
2023-02-17T05:51:23.941Z,101037.25
2023-02-17T05:53:50.308Z,101042.31
2023-02-17T05:56:16.620Z,101039.47
2023-02-17T05:58:43.084Z,101028.97
2023-02-17T06:01:10.359Z,101029.50
2023-02-17T06:03:37.270Z,101025.09
2023-02-17T06:06:04.595Z,101022.69
2023-02-17T06:08:31.272Z,101016.16
2023-02-17T06:10:57.632Z,101019.75
2023-02-17T06:13:23.934Z,101030.53
2023-02-17T06:15:50.289Z,101016.25
2023-02-17T06:18:16.936Z,101029.38
2023-02-17T06:20:43.392Z,101022.44
2023-02-17T06:23:09.985Z,101013.84
2023-02-17T06:25:36.344Z,101016.09
2023-02-17T06:28:02.858Z,101018.63
2023-02-17T06:30:29.751Z,101018.09
2023-02-17T06:32:56.349Z,101014.16
2023-02-17T06:35:22.727Z,101024.66
2023-02-17T06:37:49.193Z,101026.25
2023-02-17T06:40:15.940Z,101021.72
2023-02-17T06:42:42.363Z,101022.09
2023-02-17T06:45:09.074Z,101016.50
2023-02-17T06:47:35.740Z,101031.84
2023-02-17T06:50:02.155Z,101042.38
2023-02-17T06:52:28.513Z,101046.06
2023-02-17T06:54:54.832Z,101051.63
2023-02-17T06:57:21.178Z,101056.66
2023-02-17T06:59:47.547Z,101051.41
2023-02-17T07:02:14.569Z,101041.94
2023-02-17T07:04:41.672Z,101040.63
2023-02-17T07:07:08.647Z,101056.81
2023-02-17T07:09:34.968Z,101056.97
2023-02-17T07:12:01.765Z,101056.66
2023-02-17T07:14:28.191Z,101053.97
2023-02-17T07:16:55.012Z,101061.66
2023-02-17T07:19:21.521Z,101049.34
2023-02-17T07:21:47.926Z,101040.97
2023-02-17T07:24:14.316Z,101040.13
2023-02-17T07:26:40.835Z,101038.00
2023-02-17T07:29:07.850Z,101031.28
2023-02-17T07:31:35.239Z,101029.19
2023-02-17T07:34:02.869Z,101034.72
2023-02-17T07:36:29.476Z,101044.91
2023-02-17T07:38:56.128Z,101042.88
2023-02-17T07:41:30.641Z,101032.06
2023-02-17T07:43:57.554Z,101034.38
2023-02-17T07:46:24.752Z,101035.03
2023-02-17T07:48:51.285Z,101035.81
2023-02-17T07:51:20.658Z,101045.78
2023-02-17T07:53:47.906Z,101043.28
2023-02-17T07:56:16.055Z,101043.78
2023-02-17T07:58:43.345Z,101043.00
2023-02-17T08:01:15.748Z,101036.69
2023-02-17T08:03:42.934Z,101035.53
2023-02-17T08:06:14.619Z,101037.03
2023-02-17T08:08:59.500Z,101046.75
2023-02-17T08:11:46.465Z,101048.78
2023-02-17T08:14:13.564Z,101037.09
2023-02-17T08:16:40.333Z,101018.94
2023-02-17T08:19:07.732Z,101020.81
2023-02-17T08:21:34.198Z,101031.84
2023-02-17T08:24:00.577Z,101028.47
2023-02-17T08:26:27.792Z,101025.16
2023-02-17T08:28:54.108Z,101036.69
2023-02-17T08:31:23.380Z,101035.22
2023-02-17T08:33:50.157Z,101033.53
2023-02-17T08:36:16.784Z,101041.91
2023-02-17T08:38:48.417Z,101038.25
2023-02-17T08:41:19.096Z,101033.75
2023-02-17T08:43:45.550Z,101032.47
2023-02-17T08:46:12.571Z,101039.16
2023-02-17T08:48:39.088Z,101020.63
2023-02-17T08:51:05.792Z,101014.09
2023-02-17T08:53:33.366Z,101028.50
2023-02-17T08:55:59.922Z,101029.19
2023-02-17T08:58:26.310Z,101025.00
2023-02-17T09:00:52.749Z,101037.88
2023-02-17T09:03:19.190Z,101024.81
2023-02-17T09:05:45.664Z,101026.69
2023-02-17T09:08:12.088Z,101021.97
2023-02-17T09:10:38.525Z,101014.63
2023-02-17T09:13:05.408Z,101024.16
2023-02-17T09:15:31.866Z,101029.34
2023-02-17T09:17:58.452Z,101047.56
2023-02-17T09:20:25.584Z,101059.25
2023-02-17T09:22:52.469Z,101056.59
2023-02-17T09:25:19.064Z,101052.22
2023-02-17T09:27:45.518Z,101047.38
2023-02-17T09:30:12.419Z,101052.41
2023-02-17T09:32:41.930Z,101050.72
2023-02-17T09:35:11.336Z,101055.25
2023-02-17T09:37:37.734Z,101061.63
2023-02-17T09:40:04.693Z,101059.25
2023-02-17T09:42:34.109Z,101056.59
2023-02-17T09:45:06.322Z,101060.97
2023-02-17T09:47:36.417Z,101059.63
2023-02-17T09:50:06.946Z,101058.31
2023-02-17T09:52:36.026Z,101062.47
2023-02-17T09:55:09.317Z,101072.69
2023-02-17T09:57:43.203Z,101073.19
2023-02-17T10:00:15.823Z,101073.41
2023-02-17T10:02:56.490Z,101071.38
2023-02-17T10:05:25.758Z,101075.72
2023-02-17T10:07:56.526Z,101086.13
2023-02-17T10:10:26.473Z,101075.41
2023-02-17T10:12:56.638Z,101082.28
2023-02-17T10:15:25.539Z,101076.44
2023-02-17T10:17:55.986Z,101065.88
2023-02-17T10:20:35.958Z,101061.84
2023-02-17T10:23:07.430Z,101064.03
2023-02-17T10:25:59.478Z,101060.81
2023-02-17T10:28:39.640Z,101062.00
2023-02-17T10:31:12.795Z,101056.94
2023-02-17T10:33:52.950Z,101058.91
2023-02-17T10:36:33.858Z,101054.19
2023-02-17T10:39:03.880Z,101067.03
2023-02-17T10:41:35.128Z,101061.50
2023-02-17T10:44:03.260Z,101059.00
2023-02-17T10:46:30.585Z,101048.59
2023-02-17T10:48:57.893Z,101058.25
2023-02-17T10:51:31.195Z,101048.19
2023-02-17T10:54:01.717Z,101055.25
2023-02-17T10:56:44.704Z,101043.25
2023-02-17T10:59:22.506Z,101044.59
2023-02-17T11:01:49.296Z,101039.69
2023-02-17T11:04:15.694Z,101047.69
2023-02-17T11:06:44.594Z,101025.88
2023-02-17T11:09:29.299Z,101038.88
2023-02-17T11:12:12.223Z,101038.63
2023-02-17T11:14:48.750Z,101033.97
2023-02-17T11:17:30.583Z,101021.44
2023-02-17T11:20:04.956Z,101018.50
2023-02-17T11:22:37.036Z,101020.81
2023-02-17T11:25:18.909Z,101009.66
2023-02-17T11:27:52.238Z,101013.16
2023-02-17T11:30:18.999Z,101009.00
2023-02-17T11:32:45.547Z,101001.28
2023-02-17T11:35:54.050Z,100997.28
2023-02-17T11:38:23.466Z,100998.13
2023-02-17T11:41:03.926Z,100999.19
2023-02-17T11:43:30.785Z,100997.91
2023-02-17T11:46:03.204Z,100989.22
2023-02-17T11:48:32.456Z,101000.78
2023-02-17T11:51:23.151Z,100989.94
2023-02-17T11:54:06.646Z,100986.41
2023-02-17T11:56:35.367Z,100983.91
2023-02-17T11:59:26.639Z,100990.38
2023-02-17T12:02:05.261Z,100975.38
2023-02-17T12:04:33.583Z,100983.44
2023-02-17T12:07:22.737Z,100981.34
2023-02-17T12:10:16.104Z,100981.06
2023-02-17T12:13:05.251Z,100978.50
2023-02-17T12:15:40.821Z,100984.22
2023-02-17T12:18:31.484Z,100971.56
2023-02-17T12:21:12.446Z,100974.97
2023-02-17T12:23:49.984Z,100981.63
2023-02-17T12:26:24.723Z,100977.91
2023-02-17T12:29:23.450Z,100987.69
2023-02-17T12:31:58.755Z,100977.84
2023-02-17T12:35:00.210Z,100969.88
2023-02-17T12:37:34.158Z,100959.00
2023-02-17T12:40:10.492Z,100961.28
2023-02-17T12:42:40.294Z,100955.94
2023-02-17T12:45:31.406Z,100949.75
2023-02-17T12:48:02.842Z,100938.69
2023-02-17T12:50:35.903Z,100948.53
2023-02-17T12:53:06.671Z,100932.94
2023-02-17T12:55:48.738Z,100947.22
2023-02-17T12:58:21.569Z,100942.19
2023-02-17T13:01:06.880Z,100948.44
2023-02-17T13:03:35.399Z,100940.78
2023-02-17T13:06:29.568Z,100943.34
2023-02-17T13:08:58.613Z,100945.59
2023-02-17T13:11:30.723Z,100943.19
2023-02-17T13:13:57.283Z,100931.25
2023-02-17T13:16:23.778Z,100938.97
2023-02-17T13:18:51.879Z,100930.66
2023-02-17T13:21:32.346Z,100935.31
2023-02-17T13:23:58.753Z,100939.38
2023-02-17T13:26:30.787Z,100930.56
2023-02-17T13:29:23.348Z,100919.72
2023-02-17T13:31:54.330Z,100913.31
2023-02-17T13:34:31.700Z,100915.91
2023-02-17T13:36:58.577Z,100918.75
2023-02-17T13:39:27.885Z,100909.31
2023-02-17T13:41:59.292Z,100923.03
2023-02-17T13:44:40.126Z,100920.72
2023-02-17T13:47:14.116Z,100919.53
2023-02-17T13:49:40.382Z,100925.59
2023-02-17T13:52:17.740Z,100931.91
2023-02-17T13:54:57.339Z,100913.25
2023-02-17T13:57:32.467Z,100919.66
2023-02-17T14:00:29.093Z,100929.53
2023-02-17T14:03:15.583Z,100923.38
2023-02-17T14:05:46.823Z,100904.44
2023-02-17T14:08:34.260Z,100906.88
2023-02-17T14:11:16.965Z,100909.22
2023-02-17T14:13:45.824Z,100895.31
2023-02-17T14:16:33.218Z,100892.22
2023-02-17T14:19:17.240Z,100886.53
2023-02-17T14:22:04.451Z,100885.09
2023-02-17T14:24:36.121Z,100884.25
2023-02-17T14:27:13.805Z,100886.28
2023-02-17T14:29:50.110Z,100873.66
2023-02-17T14:32:34.719Z,100881.41
2023-02-17T14:35:13.310Z,100881.41
2023-02-17T14:37:41.472Z,100887.47
2023-02-17T14:40:28.196Z,100883.66
2023-02-17T14:42:54.565Z,100890.22
2023-02-17T14:45:20.901Z,100896.63
2023-02-17T14:47:47.449Z,100893.78
2023-02-17T14:50:16.073Z,100900.31
2023-02-17T14:52:45.477Z,100897.47
2023-02-17T14:55:35.221Z,100894.97
2023-02-17T14:58:01.793Z,100891.28
2023-02-17T15:00:28.535Z,100901.16
2023-02-17T15:02:54.946Z,100892.44
2023-02-17T15:05:21.319Z,100896.84
2023-02-17T15:07:47.815Z,100907.22
2023-02-17T15:10:28.095Z,100907.34
2023-02-17T15:12:55.976Z,100910.66
2023-02-17T15:15:22.575Z,100905.91
2023-02-17T15:17:48.946Z,100919.00
2023-02-17T15:20:16.536Z,100918.88
2023-02-17T15:22:44.196Z,100916.50
2023-02-17T15:25:19.045Z,100932.59
2023-02-17T15:27:47.212Z,100924.38
2023-02-17T15:30:16.452Z,100922.00
2023-02-17T15:32:43.603Z,100927.22
2023-02-17T15:35:16.639Z,100917.69
2023-02-17T15:37:43.083Z,100924.00
2023-02-17T15:40:14.434Z,100927.34
2023-02-17T15:42:40.888Z,100919.97
2023-02-17T15:45:09.637Z,100923.88
2023-02-17T15:47:36.037Z,100916.97
2023-02-17T15:50:02.368Z,100916.16
2023-02-17T15:52:28.692Z,100904.94
2023-02-17T15:54:55.080Z,100901.63
2023-02-17T15:57:25.357Z,100897.56
2023-02-17T15:59:54.848Z,100907.34
2023-02-17T16:02:23.201Z,100913.84
2023-02-17T16:04:49.613Z,100929.22
2023-02-17T16:07:16.011Z,100938.97
2023-02-17T16:09:42.462Z,100939.31
2023-02-17T16:12:16.449Z,100940.97
2023-02-17T16:14:43.961Z,100946.34
2023-02-17T16:17:16.047Z,100939.53
2023-02-17T16:19:42.600Z,100941.53
2023-02-17T16:22:08.981Z,100934.91
2023-02-17T16:24:35.301Z,100937.13
2023-02-17T16:27:01.771Z,100927.72
2023-02-17T16:29:28.214Z,100939.00
2023-02-17T16:31:55.780Z,100956.13
2023-02-17T16:34:23.303Z,100952.94
2023-02-17T16:36:51.059Z,100958.53
2023-02-17T16:39:20.001Z,100961.22
2023-02-17T16:41:46.981Z,100948.63
2023-02-17T16:44:17.275Z,100956.22
2023-02-17T16:46:51.945Z,100957.06
2023-02-17T16:49:33.081Z,100957.25
2023-02-17T16:52:05.733Z,100965.97
2023-02-17T16:54:34.387Z,100972.25
2023-02-17T16:57:01.771Z,100961.53
2023-02-17T16:59:28.212Z,100961.53
2023-02-17T17:01:54.604Z,100961.72
2023-02-17T17:04:21.691Z,100958.88
2023-02-17T17:06:50.488Z,100959.94
2023-02-17T17:09:23.697Z,100964.44
2023-02-17T17:11:50.211Z,100952.19
2023-02-17T17:14:16.935Z,100959.13
2023-02-17T17:16:49.093Z,100959.56
2023-02-17T17:19:15.500Z,100973.22
2023-02-17T17:21:41.872Z,100966.00
2023-02-17T17:24:08.256Z,100963.50
2023-02-17T17:26:39.811Z,100965.16
2023-02-17T17:29:07.453Z,100961.47
2023-02-17T17:31:34.460Z,100958.28
2023-02-17T17:34:00.844Z,100968.84
2023-02-17T17:36:39.361Z,100965.50
2023-02-17T17:39:07.835Z,100986.66
2023-02-17T17:41:34.231Z,100976.09
2023-02-17T17:44:00.666Z,100986.31
2023-02-17T17:46:31.923Z,100987.84
2023-02-17T17:48:59.656Z,100999.94
2023-02-17T17:51:28.157Z,100996.59
2023-02-17T17:53:54.683Z,100997.91
2023-02-17T17:56:28.499Z,101006.31
2023-02-17T17:58:55.713Z,101007.50
2023-02-17T18:01:22.175Z,101014.63
2023-02-17T18:03:49.502Z,101022.34
2023-02-17T18:06:19.298Z,101029.06
2023-02-17T18:08:46.786Z,101027.38
2023-02-17T18:11:15.881Z,101034.28
2023-02-17T18:13:43.443Z,101050.06
2023-02-17T18:16:10.126Z,101045.69
2023-02-17T18:18:36.905Z,101053.75
2023-02-17T18:21:03.425Z,101064.69
2023-02-17T18:23:29.902Z,101059.16
2023-02-17T18:25:56.254Z,101062.50
2023-02-17T18:28:22.672Z,101074.25
2023-02-17T18:30:49.101Z,101076.44
2023-02-17T18:33:15.646Z,101084.00
2023-02-17T18:35:43.994Z,101082.50
2023-02-17T18:38:10.355Z,101077.66
2023-02-17T18:40:40.543Z,101088.88
2023-02-17T18:43:07.725Z,101089.72
2023-02-17T18:45:34.215Z,101083.19
2023-02-17T18:48:00.630Z,101088.88
2023-02-17T18:50:27.392Z,101100.44
2023-02-17T18:52:53.727Z,101105.28
2023-02-17T18:55:20.131Z,101100.09
2023-02-17T18:57:46.516Z,101103.44
2023-02-17T19:00:15.400Z,101102.25
2023-02-17T19:02:41.950Z,101103.19
2023-02-17T19:05:10.021Z,101110.91
2023-02-17T19:07:36.430Z,101116.47
2023-02-17T19:10:03.958Z,101121.56
2023-02-17T19:12:30.348Z,101126.09
2023-02-17T19:14:56.732Z,101126.44
2023-02-17T19:17:24.543Z,101129.97
2023-02-17T19:19:51.244Z,101135.16
2023-02-17T19:22:18.236Z,101134.16
2023-02-17T19:24:45.097Z,101137.69
2023-02-17T19:27:11.895Z,101131.28
2023-02-17T19:29:38.320Z,101133.31
2023-02-17T19:32:04.860Z,101129.78
2023-02-17T19:34:31.996Z,101138.03
2023-02-17T19:36:58.412Z,101141.69
2023-02-17T19:39:24.801Z,101144.88
2023-02-17T19:41:51.153Z,101137.50
2023-02-17T19:44:17.598Z,101143.53
2023-02-17T19:46:43.951Z,101141.72
2023-02-17T19:49:10.343Z,101149.16
2023-02-17T19:51:36.725Z,101144.31
2023-02-17T19:54:03.120Z,101141.00
2023-02-17T19:56:31.912Z,101135.31
2023-02-17T19:58:58.635Z,101140.19
2023-02-17T20:01:27.281Z,101148.44
2023-02-17T20:03:55.020Z,101143.47
2023-02-17T20:06:34.650Z,101148.31
2023-02-17T20:09:04.584Z,101149.19
2023-02-17T20:11:31.943Z,101156.19
2023-02-17T20:13:59.427Z,101151.69
2023-02-17T20:16:26.814Z,101159.06
2023-02-17T20:18:55.085Z,101168.63
2023-02-17T20:21:24.184Z,101163.25
2023-02-17T20:23:51.385Z,101166.81
2023-02-17T20:26:25.307Z,101170.47
2023-02-17T20:28:51.793Z,101162.44
2023-02-17T20:31:18.537Z,101170.16
2023-02-17T20:33:45.358Z,101169.31
2023-02-17T20:36:12.219Z,101167.31
2023-02-17T20:38:40.500Z,101166.63
2023-02-17T20:41:08.438Z,101160.59
2023-02-17T20:43:37.460Z,101165.97
2023-02-17T20:46:04.050Z,101169.16
2023-02-17T20:48:30.368Z,101163.97
2023-02-17T20:50:58.225Z,101164.28
2023-02-17T20:53:25.741Z,101160.28
2023-02-17T20:55:52.360Z,101159.06
2023-02-17T20:58:19.017Z,101164.63
2023-02-17T21:00:46.100Z,101162.13
2023-02-17T21:03:12.543Z,101172.50
2023-02-17T21:05:39.039Z,101177.88
2023-02-17T21:08:05.398Z,101171.34
2023-02-17T21:10:32.888Z,101172.00
2023-02-17T21:12:59.266Z,101174.50
2023-02-17T21:15:25.711Z,101181.53
2023-02-17T21:17:52.088Z,101183.34
2023-02-17T21:20:20.466Z,101182.19
2023-02-17T21:22:46.896Z,101183.50
2023-02-17T21:25:13.485Z,101187.50
2023-02-17T21:27:39.871Z,101185.78
2023-02-17T21:30:07.561Z,101182.66
2023-02-17T21:32:33.803Z,101186.84
2023-02-17T21:35:00.138Z,101185.66
2023-02-17T21:37:26.478Z,101191.16
2023-02-17T21:39:52.858Z,101187.47
2023-02-17T21:42:39.162Z,101190.66
2023-02-17T21:45:05.884Z,101191.66
2023-02-17T21:47:32.534Z,101190.53
2023-02-17T21:49:59.099Z,101192.66
2023-02-17T21:52:25.437Z,101185.00
2023-02-17T21:54:51.827Z,101177.13
2023-02-17T21:57:18.249Z,101172.94
2023-02-17T21:59:44.611Z,101189.22
2023-02-17T22:02:11.830Z,101184.31
2023-02-17T22:04:38.223Z,101180.16
2023-02-17T22:07:04.565Z,101185.22
2023-02-17T22:09:30.919Z,101184.88
2023-02-17T22:11:57.276Z,101174.16
2023-02-17T22:14:23.609Z,101180.53
2023-02-17T22:16:49.998Z,101177.84
2023-02-17T22:19:23.625Z,101176.84
2023-02-17T22:21:51.281Z,101181.72
2023-02-17T22:24:17.620Z,101188.25
2023-02-17T22:26:43.922Z,101181.56
2023-02-17T22:29:10.269Z,101182.53
2023-02-17T22:31:36.693Z,101185.22
2023-02-17T22:34:06.308Z,101190.25
2023-02-17T22:36:34.621Z,101190.41
2023-02-17T22:39:01.699Z,101187.75
2023-02-17T22:41:28.304Z,101184.22
2023-02-17T22:43:54.869Z,101177.19
2023-02-17T22:46:23.223Z,101179.53
2023-02-17T22:48:51.846Z,101184.06
2023-02-17T22:51:20.620Z,101178.03
2023-02-17T22:53:47.254Z,101176.84
2023-02-17T22:56:13.942Z,101179.84
2023-02-17T22:58:40.682Z,101182.22
2023-02-17T23:01:15.718Z,101186.88
2023-02-17T23:03:42.596Z,101173.69
2023-02-17T23:06:12.541Z,101179.00
2023-02-17T23:08:39.196Z,101181.22
2023-02-17T23:11:10.518Z,101179.19
2023-02-17T23:13:37.784Z,101175.00
2023-02-17T23:16:05.154Z,101174.50
2023-02-17T23:18:33.152Z,101188.56
2023-02-17T23:21:00.108Z,101187.56
2023-02-17T23:23:26.782Z,101187.72
2023-02-17T23:25:54.974Z,101189.06
2023-02-17T23:28:23.492Z,101187.72
2023-02-17T23:30:50.457Z,101188.75
2023-02-17T23:33:18.408Z,101190.94
2023-02-17T23:35:45.859Z,101182.38
2023-02-17T23:38:13.771Z,101193.78
2023-02-17T23:40:40.384Z,101196.13
2023-02-17T23:43:06.785Z,101187.91
2023-02-17T23:45:33.970Z,101190.44
2023-02-17T23:48:00.330Z,101193.94
2023-02-17T23:50:26.879Z,101181.53
2023-02-17T23:52:53.236Z,101179.53
2023-02-17T23:55:19.631Z,101183.22
2023-02-17T23:57:46.007Z,101183.88
